66VG weather

Southside Regional Medical Center Heliport
Petersburg, Virginia, United States

Public forecast

Using degrees Fahrenheit for public forecast. Weather courtesy of forecast.io.

METAR (pilot weather report)

Closest report is Dinwiddie County Airport, 7.0 nm (13.0 km) W. Retrieved 2019/03/20 18:35 UTC (21 minutes ago):

KPTB 201835Z AUTO 10006KT 10SM OVC065 12/M05 A3028 RMK AO2 T01171055

TAF (pilot weather forecast)

Closest forecast is Richmond International Airport, 19.5 nm (36.1 km) N. Retrieved 2019/03/20 18:42 UTC (14 minutes ago):

TAF KRIC 201739Z 2018/2118 09008KT P6SM BKN060 FM210000 08005KT 6SM -SHRA OVC025 FM210300 06006KT 4SM RA OVC007 FM210900 07005KT 2SM RA OVC004 FM211300 09007KT 5SM -SHRA OVC007 FM211600 15005KT P6SM OVC015